createdAt,value
2023-05-21T00:03:54.570Z,27.40
2023-05-21T00:07:57.779Z,28.80
2023-05-21T00:12:01.116Z,28.60
2023-05-21T00:16:04.558Z,29.80
2023-05-21T00:20:09.111Z,31.30
2023-05-21T00:24:12.373Z,31.40
2023-05-21T00:28:15.701Z,27.70
2023-05-21T00:32:20.745Z,28.00
2023-05-21T00:36:25.428Z,30.90
2023-05-21T00:40:31.204Z,26.30
2023-05-21T00:44:35.467Z,29.00
2023-05-21T00:48:40.013Z,31.30
2023-05-21T00:52:45.702Z,29.10
2023-05-21T00:56:50.054Z,32.80
2023-05-21T01:00:56.021Z,29.80
2023-05-21T01:09:06.523Z,26.60
2023-05-21T01:13:09.867Z,29.70
2023-05-21T01:17:13.944Z,23.90
2023-05-21T01:21:18.607Z,22.80
2023-05-21T01:25:23.405Z,28.10
2023-05-21T01:29:26.664Z,21.60
2023-05-21T01:33:45.743Z,23.30
2023-05-21T01:37:55.880Z,24.00
2023-05-21T01:42:03.710Z,27.70
2023-05-21T01:46:11.011Z,24.10
2023-05-21T01:50:16.088Z,23.30
2023-05-21T01:54:19.407Z,22.30
2023-05-21T01:58:23.493Z,23.00
2023-05-21T02:02:26.846Z,28.40
2023-05-21T02:06:31.866Z,27.30
2023-05-21T02:10:36.109Z,23.60
2023-05-21T02:14:39.392Z,23.90
2023-05-21T02:18:46.592Z,21.80
2023-05-21T02:22:50.872Z,26.80
2023-05-21T02:26:54.192Z,27.30
2023-05-21T02:30:57.474Z,23.00
2023-05-21T02:35:01.538Z,29.20
2023-05-21T02:39:04.723Z,30.60
2023-05-21T02:43:07.813Z,25.80
2023-05-21T02:47:13.039Z,27.30
2023-05-21T02:51:16.182Z,34.20
2023-05-21T02:55:19.211Z,31.50
2023-05-21T02:59:22.350Z,30.70
2023-05-21T03:03:25.745Z,31.80
2023-05-21T03:07:29.039Z,29.00
2023-05-21T03:11:32.420Z,28.40
2023-05-21T03:15:36.130Z,27.20
2023-05-21T03:19:42.097Z,26.10
2023-05-21T03:23:45.677Z,23.30
2023-05-21T03:27:49.116Z,19.80
2023-05-21T03:31:56.728Z,20.30
2023-05-21T03:36:00.438Z,20.10
2023-05-21T03:40:04.746Z,18.90
2023-05-21T03:44:09.673Z,21.30
2023-05-21T03:48:12.860Z,17.30
2023-05-21T03:52:16.100Z,20.80
2023-05-21T03:56:19.487Z,23.10
2023-05-21T04:00:22.741Z,19.50
2023-05-21T04:04:26.521Z,21.50
2023-05-21T04:08:29.905Z,21.30
2023-05-21T04:12:33.398Z,20.30
2023-05-21T04:16:38.895Z,24.10
2023-05-21T04:20:42.242Z,23.10
2023-05-21T04:24:46.610Z,23.50
2023-05-21T04:28:50.599Z,21.80
2023-05-21T04:32:55.046Z,23.20
2023-05-21T04:36:58.678Z,37.60
2023-05-21T04:41:03.980Z,29.80
2023-05-21T04:45:07.616Z,20.60
2023-05-21T04:49:10.859Z,21.30
2023-05-21T04:53:14.127Z,20.90
2023-05-21T04:57:18.567Z,20.60
2023-05-21T05:01:27.065Z,22.30
2023-05-21T05:05:30.660Z,52.60
2023-05-21T05:09:34.705Z,34.90
2023-05-21T05:13:37.932Z,20.40
2023-05-21T05:17:41.374Z,21.80
2023-05-21T05:21:44.556Z,19.70
2023-05-21T05:25:47.890Z,19.60
2023-05-21T05:29:51.139Z,16.30
2023-05-21T05:33:54.492Z,19.30
2023-05-21T05:37:57.773Z,16.20
2023-05-21T05:42:01.710Z,22.70
2023-05-21T05:46:05.151Z,20.40
2023-05-21T05:50:08.784Z,25.30
2023-05-21T05:54:11.949Z,22.40
2023-05-21T05:58:15.285Z,17.50
2023-05-21T06:02:18.664Z,12.90
2023-05-21T06:06:22.112Z,15.00
2023-05-21T06:10:25.722Z,13.90
2023-05-21T06:14:28.974Z,12.70
2023-05-21T06:18:32.434Z,14.70
2023-05-21T06:22:37.056Z,12.10
2023-05-21T06:26:40.367Z,13.20
2023-05-21T06:30:43.510Z,13.00
2023-05-21T06:34:47.046Z,13.00
2023-05-21T06:38:50.328Z,12.30
2023-05-21T06:42:53.726Z,15.30
2023-05-21T06:46:56.983Z,13.50
2023-05-21T06:51:00.447Z,13.10
2023-05-21T06:55:04.295Z,12.30
2023-05-21T06:59:07.663Z,13.50
2023-05-21T07:03:11.256Z,15.10
2023-05-21T07:07:14.638Z,12.70
2023-05-21T07:11:17.818Z,12.60
2023-05-21T07:15:21.119Z,12.60
2023-05-21T07:19:24.458Z,14.40
2023-05-21T07:23:27.655Z,11.90
2023-05-21T07:27:30.904Z,21.20
2023-05-21T07:31:34.453Z,15.10
2023-05-21T07:35:37.933Z,15.90
2023-05-21T07:39:41.407Z,13.20
2023-05-21T07:43:44.748Z,14.80
2023-05-21T07:47:48.037Z,14.20
2023-05-21T07:51:51.335Z,13.80
2023-05-21T07:55:54.712Z,14.20
2023-05-21T07:59:58.677Z,13.00
2023-05-21T08:04:05.902Z,13.60
2023-05-21T08:08:09.458Z,12.70
2023-05-21T08:12:15.907Z,14.00
2023-05-21T08:16:19.384Z,14.10
2023-05-21T08:20:22.593Z,12.80
2023-05-21T08:24:26.534Z,12.20
2023-05-21T08:28:30.901Z,11.90
2023-05-21T08:32:52.287Z,12.20
2023-05-21T08:37:17.118Z,11.10
2023-05-21T08:41:23.814Z,10.70
2023-05-21T08:45:38.283Z,11.90
2023-05-21T08:49:45.287Z,16.10
2023-05-21T08:53:53.076Z,11.60
2023-05-21T08:58:04.108Z,11.80
2023-05-21T09:02:14.025Z,11.10
2023-05-21T09:06:24.717Z,10.50
2023-05-21T09:15:01.859Z,11.10
2023-05-21T09:19:13.044Z,10.80
2023-05-21T09:23:18.481Z,8.10
2023-05-21T09:27:22.794Z,9.70
2023-05-21T09:31:27.422Z,8.60
2023-05-21T09:35:31.576Z,10.10
2023-05-21T09:39:35.996Z,10.60
2023-05-21T09:43:43.160Z,9.20
2023-05-21T09:47:48.499Z,10.10
2023-05-21T09:56:32.328Z,7.80
2023-05-21T10:00:35.664Z,9.70
2023-05-21T10:04:39.370Z,8.70
2023-05-21T10:08:48.351Z,7.40
2023-05-21T10:13:23.954Z,7.20
2023-05-21T10:17:28.436Z,6.90
2023-05-21T10:21:33.608Z,6.30
2023-05-21T10:29:41.863Z,6.50
2023-05-21T10:33:58.612Z,7.30
2023-05-21T10:38:04.324Z,12.40
2023-05-21T10:42:34.259Z,6.10
2023-05-21T10:46:47.467Z,5.50
2023-05-21T10:50:56.105Z,6.60
2023-05-21T10:54:58.900Z,4.50
2023-05-21T10:59:51.824Z,5.40
2023-05-21T11:03:55.989Z,5.80
2023-05-21T11:08:02.520Z,5.50
2023-05-21T11:12:05.788Z,5.50
2023-05-21T11:16:16.765Z,6.30
2023-05-21T11:20:22.951Z,6.10
2023-05-21T11:24:28.315Z,5.30
2023-05-21T11:33:14.169Z,5.40
2023-05-21T11:37:17.627Z,5.70
2023-05-21T11:41:22.281Z,4.90
2023-05-21T11:45:54.783Z,5.80
2023-05-21T11:50:00.816Z,5.30
2023-05-21T11:54:54.196Z,5.90
2023-05-21T11:58:56.952Z,5.00
2023-05-21T12:03:02.305Z,4.50
2023-05-21T12:07:11.013Z,6.70
2023-05-21T12:11:13.956Z,4.70
2023-05-21T12:15:18.972Z,4.70
2023-05-21T12:19:22.135Z,4.30
2023-05-21T12:23:27.179Z,3.80
2023-05-21T12:27:31.225Z,4.40
2023-05-21T12:31:48.003Z,4.10
2023-05-21T12:35:51.716Z,4.30
2023-05-21T12:39:57.965Z,3.90
2023-05-21T12:44:01.222Z,4.00
2023-05-21T12:48:04.299Z,4.20
2023-05-21T12:52:57.722Z,3.30
2023-05-21T12:57:28.321Z,4.00
2023-05-21T13:02:02.105Z,3.90
2023-05-21T13:06:09.261Z,3.60
2023-05-21T13:10:13.149Z,6.60
2023-05-21T13:15:15.230Z,3.30
2023-05-21T13:19:18.227Z,5.40
2023-05-21T13:23:21.250Z,3.80
2023-05-21T13:27:24.004Z,3.50
2023-05-21T13:31:27.134Z,3.20
2023-05-21T13:35:31.116Z,3.40
2023-05-21T13:39:58.921Z,2.90
2023-05-21T13:44:01.942Z,4.10
2023-05-21T13:48:05.104Z,3.90
2023-05-21T13:52:08.800Z,3.40
2023-05-21T13:56:11.653Z,3.40
2023-05-21T14:00:15.846Z,3.30
2023-05-21T14:04:19.885Z,3.60
2023-05-21T14:08:30.091Z,3.50
2023-05-21T14:12:33.437Z,3.80
2023-05-21T14:16:36.464Z,3.80
2023-05-21T14:20:39.517Z,3.40
2023-05-21T14:24:42.487Z,3.00
2023-05-21T14:28:46.377Z,3.20
2023-05-21T14:32:49.287Z,3.60
2023-05-21T14:36:52.045Z,3.00
2023-05-21T14:40:55.128Z,3.10
2023-05-21T14:49:01.502Z,3.50
2023-05-21T14:53:06.181Z,3.90
2023-05-21T14:57:18.035Z,3.00
2023-05-21T15:01:21.066Z,3.30
2023-05-21T15:05:24.915Z,2.60
2023-05-21T15:09:27.686Z,4.10
2023-05-21T15:13:30.538Z,4.10
2023-05-21T15:17:34.787Z,3.10
2023-05-21T15:21:37.892Z,3.10
2023-05-21T15:25:40.711Z,3.70
2023-05-21T15:29:45.672Z,3.40
2023-05-21T15:33:49.085Z,4.10
2023-05-21T15:37:52.048Z,3.40
2023-05-21T15:41:54.958Z,3.50
2023-05-21T15:51:05.028Z,3.50
2023-05-21T16:11:17.968Z,3.20
2023-05-21T16:36:53.661Z,3.40
2023-05-21T16:40:56.772Z,3.60
2023-05-21T16:44:59.963Z,3.10
2023-05-21T16:49:02.993Z,3.30
2023-05-21T16:53:07.678Z,3.00
2023-05-21T16:57:10.594Z,2.80
2023-05-21T17:01:14.786Z,3.10
2023-05-21T17:05:17.705Z,2.80
2023-05-21T17:09:22.838Z,2.50
2023-05-21T17:13:25.573Z,4.60
2023-05-21T17:17:28.454Z,4.00
2023-05-21T17:21:31.745Z,2.90
2023-05-21T17:25:40.230Z,4.40
2023-05-21T17:29:43.887Z,3.00
2023-05-21T17:33:47.117Z,3.80
2023-05-21T17:37:50.447Z,3.70
2023-05-21T17:41:53.650Z,3.20
2023-05-21T17:45:56.827Z,2.90
2023-05-21T17:50:00.192Z,3.60
2023-05-21T17:54:04.244Z,3.20
2023-05-21T17:58:07.627Z,4.20
2023-05-21T18:02:11.521Z,3.70
2023-05-21T18:06:14.911Z,3.30
2023-05-21T18:10:18.194Z,4.40
2023-05-21T18:14:21.436Z,3.40
2023-05-21T18:18:25.053Z,4.30
2023-05-21T18:22:28.201Z,3.60
2023-05-21T18:26:32.212Z,3.50
2023-05-21T18:30:35.839Z,4.30
2023-05-21T18:34:39.405Z,3.30
2023-05-21T18:38:42.650Z,4.10
2023-05-21T18:42:46.058Z,4.40
2023-05-21T18:46:49.356Z,4.30
2023-05-21T18:50:53.049Z,3.60
2023-05-21T18:54:56.281Z,3.90
2023-05-21T18:59:03.946Z,4.20
2023-05-21T19:03:07.465Z,4.20
2023-05-21T19:07:11.706Z,5.30
2023-05-21T19:11:18.934Z,3.80
2023-05-21T19:15:23.262Z,4.70
2023-05-21T19:19:26.898Z,4.10
2023-05-21T19:23:33.795Z,4.50
2023-05-21T19:27:45.212Z,3.90
2023-05-21T19:31:49.200Z,4.30
2023-05-21T19:35:53.012Z,3.40
2023-05-21T19:39:56.873Z,4.20
2023-05-21T19:44:00.695Z,4.00
2023-05-21T19:48:04.720Z,3.50
2023-05-21T19:52:23.416Z,3.70
2023-05-21T19:56:35.706Z,4.40
2023-05-21T20:00:40.394Z,4.10
2023-05-21T20:04:44.550Z,4.00
2023-05-21T20:08:52.006Z,3.50
2023-05-21T20:12:58.270Z,3.70
2023-05-21T20:17:02.195Z,4.20
2023-05-21T20:21:06.700Z,3.70
2023-05-21T20:25:10.769Z,3.50
2023-05-21T20:29:14.060Z,4.10
2023-05-21T20:33:17.355Z,4.10
2023-05-21T20:37:21.907Z,4.70
2023-05-21T20:41:25.409Z,4.00
2023-05-21T20:45:29.843Z,3.80
2023-05-21T20:49:35.836Z,4.50
2023-05-21T20:53:39.246Z,3.70
2023-05-21T20:57:42.469Z,3.60
2023-05-21T21:01:45.791Z,4.20
2023-05-21T21:05:49.307Z,5.20
2023-05-21T21:09:53.434Z,4.20
2023-05-21T21:13:56.832Z,4.10
2023-05-21T21:18:00.013Z,4.00
2023-05-21T21:22:03.450Z,4.50
2023-05-21T21:26:06.785Z,4.30
2023-05-21T21:30:10.440Z,5.20
2023-05-21T21:34:14.502Z,3.90
2023-05-21T21:38:17.812Z,3.90
2023-05-21T21:42:21.037Z,4.30
2023-05-21T21:46:25.734Z,3.80
2023-05-21T21:50:29.044Z,4.90
2023-05-21T21:54:32.198Z,4.60
2023-05-21T21:58:35.596Z,4.30
2023-05-21T22:02:40.364Z,4.80
2023-05-21T22:06:45.473Z,4.20
2023-05-21T22:10:48.781Z,4.80
2023-05-21T22:14:52.234Z,4.50
2023-05-21T22:18:55.722Z,3.80
2023-05-21T22:22:59.978Z,4.50
2023-05-21T22:27:03.636Z,5.00
2023-05-21T22:31:09.477Z,5.70
2023-05-21T22:35:12.785Z,5.20
2023-05-21T22:39:15.815Z,5.80
2023-05-21T22:43:19.094Z,5.40
2023-05-21T22:47:23.979Z,5.90
2023-05-21T22:51:29.010Z,3.90
2023-05-21T22:55:32.134Z,5.30
2023-05-21T22:59:35.322Z,6.30
2023-05-21T23:03:38.758Z,6.20
2023-05-21T23:07:43.018Z,5.30
2023-05-21T23:11:46.275Z,5.40
2023-05-21T23:15:50.828Z,6.30
2023-05-21T23:19:53.981Z,5.30
2023-05-21T23:23:57.242Z,4.50
2023-05-21T23:28:00.402Z,5.20
2023-05-21T23:32:05.405Z,5.30
2023-05-21T23:36:09.061Z,5.90
2023-05-21T23:59:03.285Z,5.20
